sensor_id;sensor_type;location;lat;lon;timestamp;P1;durP1;ratioP1;P2;durP2;ratioP2
29902;SDS011;30288;50.514;9.678;2023-12-07T00:00:28;57.45;;;26.10;;
29902;SDS011;30288;50.514;9.678;2023-12-07T00:02:34;58.42;;;26.17;;
29902;SDS011;30288;50.514;9.678;2023-12-07T00:04:39;62.42;;;27.58;;
29902;SDS011;30288;50.514;9.678;2023-12-07T00:06:45;64.70;;;27.02;;
29902;SDS011;30288;50.514;9.678;2023-12-07T00:08:50;58.58;;;27.10;;
29902;SDS011;30288;50.514;9.678;2023-12-07T00:10:55;68.15;;;29.17;;
29902;SDS011;30288;50.514;9.678;2023-12-07T00:13:01;67.28;;;29.17;;
29902;SDS011;30288;50.514;9.678;2023-12-07T00:15:10;67.90;;;27.63;;
29902;SDS011;30288;50.514;9.678;2023-12-07T00:17:15;70.63;;;28.13;;
29902;SDS011;30288;50.514;9.678;2023-12-07T00:19:20;61.80;;;27.38;;
29902;SDS011;30288;50.514;9.678;2023-12-07T00:21:25;73.53;;;29.45;;
29902;SDS011;30288;50.514;9.678;2023-12-07T00:23:31;68.60;;;28.17;;
29902;SDS011;30288;50.514;9.678;2023-12-07T00:25:37;75.28;;;31.08;;
29902;SDS011;30288;50.514;9.678;2023-12-07T00:27:42;73.40;;;32.80;;
29902;SDS011;30288;50.514;9.678;2023-12-07T00:29:47;77.93;;;31.25;;
29902;SDS011;30288;50.514;9.678;2023-12-07T00:31:55;76.47;;;32.45;;
29902;SDS011;30288;50.514;9.678;2023-12-07T00:34:00;81.40;;;36.28;;
29902;SDS011;30288;50.514;9.678;2023-12-07T00:36:07;91.28;;;35.35;;
29902;SDS011;30288;50.514;9.678;2023-12-07T00:38:14;79.00;;;31.90;;
29902;SDS011;30288;50.514;9.678;2023-12-07T00:40:20;75.70;;;32.15;;
29902;SDS011;30288;50.514;9.678;2023-12-07T00:42:25;73.30;;;31.52;;
29902;SDS011;30288;50.514;9.678;2023-12-07T00:44:30;65.68;;;28.95;;
29902;SDS011;30288;50.514;9.678;2023-12-07T00:46:36;72.38;;;29.30;;
29902;SDS011;30288;50.514;9.678;2023-12-07T00:48:44;70.80;;;31.02;;
29902;SDS011;30288;50.514;9.678;2023-12-07T00:50:50;73.70;;;31.17;;
29902;SDS011;30288;50.514;9.678;2023-12-07T00:52:55;76.03;;;30.55;;
29902;SDS011;30288;50.514;9.678;2023-12-07T00:55:00;68.03;;;30.90;;
29902;SDS011;30288;50.514;9.678;2023-12-07T00:57:12;69.95;;;29.95;;
29902;SDS011;30288;50.514;9.678;2023-12-07T00:59:18;67.78;;;29.17;;
29902;SDS011;30288;50.514;9.678;2023-12-07T01:01:20;59.50;;;27.08;;
29902;SDS011;30288;50.514;9.678;2023-12-07T01:03:25;66.45;;;27.95;;
29902;SDS011;30288;50.514;9.678;2023-12-07T01:05:31;72.07;;;31.23;;
29902;SDS011;30288;50.514;9.678;2023-12-07T01:07:37;74.18;;;30.40;;
29902;SDS011;30288;50.514;9.678;2023-12-07T01:09:39;61.83;;;27.02;;
29902;SDS011;30288;50.514;9.678;2023-12-07T01:11:44;65.55;;;29.17;;
29902;SDS011;30288;50.514;9.678;2023-12-07T01:13:50;66.45;;;28.77;;
29902;SDS011;30288;50.514;9.678;2023-12-07T01:15:55;58.33;;;27.90;;
29902;SDS011;30288;50.514;9.678;2023-12-07T01:18:00;64.45;;;30.77;;
29902;SDS011;30288;50.514;9.678;2023-12-07T01:20:06;69.53;;;29.27;;
29902;SDS011;30288;50.514;9.678;2023-12-07T01:22:17;71.93;;;30.88;;
29902;SDS011;30288;50.514;9.678;2023-12-07T01:24:23;73.20;;;30.52;;
29902;SDS011;30288;50.514;9.678;2023-12-07T01:26:29;64.38;;;29.60;;
29902;SDS011;30288;50.514;9.678;2023-12-07T01:28:34;67.45;;;29.63;;
29902;SDS011;30288;50.514;9.678;2023-12-07T01:30:41;64.40;;;30.65;;
29902;SDS011;30288;50.514;9.678;2023-12-07T01:32:46;65.82;;;29.13;;
29902;SDS011;30288;50.514;9.678;2023-12-07T01:34:52;62.85;;;28.55;;
29902;SDS011;30288;50.514;9.678;2023-12-07T01:36:55;67.68;;;28.88;;
29902;SDS011;30288;50.514;9.678;2023-12-07T01:39:04;66.32;;;31.27;;
29902;SDS011;30288;50.514;9.678;2023-12-07T01:41:10;65.57;;;28.20;;
29902;SDS011;30288;50.514;9.678;2023-12-07T01:43:15;65.30;;;27.75;;
29902;SDS011;30288;50.514;9.678;2023-12-07T01:45:21;61.00;;;27.55;;
29902;SDS011;30288;50.514;9.678;2023-12-07T01:47:26;60.63;;;28.30;;
29902;SDS011;30288;50.514;9.678;2023-12-07T01:49:32;62.38;;;28.75;;
29902;SDS011;30288;50.514;9.678;2023-12-07T01:51:37;64.22;;;27.80;;
29902;SDS011;30288;50.514;9.678;2023-12-07T01:53:43;60.47;;;28.70;;
29902;SDS011;30288;50.514;9.678;2023-12-07T01:55:53;58.15;;;28.40;;
29902;SDS011;30288;50.514;9.678;2023-12-07T01:57:59;57.00;;;26.00;;
29902;SDS011;30288;50.514;9.678;2023-12-07T02:00:05;59.72;;;26.95;;
29902;SDS011;30288;50.514;9.678;2023-12-07T02:02:13;60.42;;;27.27;;
29902;SDS011;30288;50.514;9.678;2023-12-07T02:04:19;57.55;;;25.77;;
29902;SDS011;30288;50.514;9.678;2023-12-07T02:06:25;66.13;;;27.50;;
29902;SDS011;30288;50.514;9.678;2023-12-07T02:08:31;63.88;;;29.23;;
29902;SDS011;30288;50.514;9.678;2023-12-07T02:10:36;63.35;;;29.98;;
29902;SDS011;30288;50.514;9.678;2023-12-07T02:12:42;60.80;;;27.75;;
29902;SDS011;30288;50.514;9.678;2023-12-07T02:14:48;57.22;;;25.05;;
29902;SDS011;30288;50.514;9.678;2023-12-07T02:16:56;57.60;;;27.02;;
29902;SDS011;30288;50.514;9.678;2023-12-07T02:19:16;61.45;;;27.02;;
29902;SDS011;30288;50.514;9.678;2023-12-07T02:21:40;58.55;;;27.77;;
29902;SDS011;30288;50.514;9.678;2023-12-07T02:23:57;56.33;;;25.90;;
29902;SDS011;30288;50.514;9.678;2023-12-07T02:26:03;51.08;;;24.98;;
29902;SDS011;30288;50.514;9.678;2023-12-07T02:28:16;58.53;;;26.63;;
29902;SDS011;30288;50.514;9.678;2023-12-07T02:30:19;63.33;;;28.48;;
29902;SDS011;30288;50.514;9.678;2023-12-07T02:32:24;59.83;;;25.98;;
29902;SDS011;30288;50.514;9.678;2023-12-07T02:34:28;69.65;;;29.02;;
29902;SDS011;30288;50.514;9.678;2023-12-07T02:36:36;61.17;;;27.13;;
29902;SDS011;30288;50.514;9.678;2023-12-07T02:38:43;56.88;;;25.52;;
29902;SDS011;30288;50.514;9.678;2023-12-07T02:40:51;63.22;;;26.67;;
29902;SDS011;30288;50.514;9.678;2023-12-07T02:42:59;62.38;;;28.27;;
29902;SDS011;30288;50.514;9.678;2023-12-07T02:45:09;60.97;;;28.33;;
29902;SDS011;30288;50.514;9.678;2023-12-07T02:47:15;59.28;;;26.95;;
29902;SDS011;30288;50.514;9.678;2023-12-07T02:49:18;60.45;;;27.48;;
29902;SDS011;30288;50.514;9.678;2023-12-07T02:51:24;60.42;;;27.17;;
29902;SDS011;30288;50.514;9.678;2023-12-07T02:53:29;57.47;;;27.25;;
29902;SDS011;30288;50.514;9.678;2023-12-07T02:55:34;62.22;;;28.30;;
29902;SDS011;30288;50.514;9.678;2023-12-07T02:57:40;52.30;;;25.98;;
29902;SDS011;30288;50.514;9.678;2023-12-07T02:59:46;55.17;;;26.30;;
29902;SDS011;30288;50.514;9.678;2023-12-07T03:01:52;54.47;;;24.95;;
29902;SDS011;30288;50.514;9.678;2023-12-07T03:03:57;51.00;;;24.65;;
29902;SDS011;30288;50.514;9.678;2023-12-07T03:06:02;51.83;;;24.92;;
29902;SDS011;30288;50.514;9.678;2023-12-07T03:08:08;56.17;;;26.30;;
29902;SDS011;30288;50.514;9.678;2023-12-07T03:10:14;62.42;;;27.33;;
29902;SDS011;30288;50.514;9.678;2023-12-07T03:12:20;64.47;;;28.33;;
29902;SDS011;30288;50.514;9.678;2023-12-07T03:14:26;67.68;;;28.20;;
29902;SDS011;30288;50.514;9.678;2023-12-07T03:16:31;62.95;;;29.25;;
29902;SDS011;30288;50.514;9.678;2023-12-07T03:18:39;67.95;;;29.33;;
29902;SDS011;30288;50.514;9.678;2023-12-07T03:20:45;67.25;;;27.27;;
29902;SDS011;30288;50.514;9.678;2023-12-07T03:22:51;63.20;;;27.63;;
29902;SDS011;30288;50.514;9.678;2023-12-07T03:24:57;59.85;;;28.42;;
29902;SDS011;30288;50.514;9.678;2023-12-07T03:27:03;66.60;;;31.25;;
29902;SDS011;30288;50.514;9.678;2023-12-07T03:29:09;70.70;;;31.15;;
29902;SDS011;30288;50.514;9.678;2023-12-07T03:31:15;68.43;;;30.40;;
29902;SDS011;30288;50.514;9.678;2023-12-07T03:33:20;66.28;;;29.63;;
29902;SDS011;30288;50.514;9.678;2023-12-07T03:35:25;70.30;;;30.52;;
29902;SDS011;30288;50.514;9.678;2023-12-07T03:37:30;71.75;;;29.92;;
29902;SDS011;30288;50.514;9.678;2023-12-07T03:39:36;71.45;;;30.65;;
29902;SDS011;30288;50.514;9.678;2023-12-07T03:41:42;74.40;;;29.35;;
29902;SDS011;30288;50.514;9.678;2023-12-07T03:43:48;69.97;;;28.90;;
29902;SDS011;30288;50.514;9.678;2023-12-07T03:45:53;78.95;;;29.50;;
29902;SDS011;30288;50.514;9.678;2023-12-07T03:47:59;70.20;;;30.17;;
29902;SDS011;30288;50.514;9.678;2023-12-07T03:50:05;79.75;;;30.83;;
29902;SDS011;30288;50.514;9.678;2023-12-07T03:52:14;80.18;;;32.65;;
29902;SDS011;30288;50.514;9.678;2023-12-07T03:54:20;83.93;;;31.77;;
29902;SDS011;30288;50.514;9.678;2023-12-07T03:56:26;69.22;;;29.35;;
29902;SDS011;30288;50.514;9.678;2023-12-07T03:58:33;68.07;;;29.00;;
29902;SDS011;30288;50.514;9.678;2023-12-07T04:00:36;73.15;;;30.48;;
29902;SDS011;30288;50.514;9.678;2023-12-07T04:02:41;70.65;;;31.88;;
29902;SDS011;30288;50.514;9.678;2023-12-07T04:04:47;77.13;;;31.10;;
29902;SDS011;30288;50.514;9.678;2023-12-07T04:06:52;75.38;;;30.10;;
29902;SDS011;30288;50.514;9.678;2023-12-07T04:08:57;78.85;;;30.98;;
29902;SDS011;30288;50.514;9.678;2023-12-07T04:11:03;80.57;;;32.70;;
29902;SDS011;30288;50.514;9.678;2023-12-07T04:13:08;75.15;;;32.20;;
29902;SDS011;30288;50.514;9.678;2023-12-07T04:15:13;72.30;;;29.65;;
29902;SDS011;30288;50.514;9.678;2023-12-07T04:17:20;75.07;;;31.58;;
29902;SDS011;30288;50.514;9.678;2023-12-07T04:19:25;80.72;;;31.20;;
29902;SDS011;30288;50.514;9.678;2023-12-07T04:21:31;69.07;;;28.20;;
29902;SDS011;30288;50.514;9.678;2023-12-07T04:23:36;77.78;;;33.38;;
29902;SDS011;30288;50.514;9.678;2023-12-07T04:25:45;79.10;;;30.70;;
29902;SDS011;30288;50.514;9.678;2023-12-07T04:27:50;80.00;;;32.50;;
29902;SDS011;30288;50.514;9.678;2023-12-07T04:29:56;70.50;;;31.23;;
29902;SDS011;30288;50.514;9.678;2023-12-07T04:32:02;72.13;;;30.33;;
29902;SDS011;30288;50.514;9.678;2023-12-07T04:34:08;70.65;;;28.95;;
29902;SDS011;30288;50.514;9.678;2023-12-07T04:36:11;61.55;;;28.40;;
29902;SDS011;30288;50.514;9.678;2023-12-07T04:38:16;62.03;;;27.92;;
29902;SDS011;30288;50.514;9.678;2023-12-07T04:40:22;66.45;;;27.88;;
29902;SDS011;30288;50.514;9.678;2023-12-07T04:42:32;68.13;;;28.80;;
29902;SDS011;30288;50.514;9.678;2023-12-07T04:44:35;69.85;;;29.08;;
29902;SDS011;30288;50.514;9.678;2023-12-07T04:46:40;71.63;;;29.38;;
29902;SDS011;30288;50.514;9.678;2023-12-07T04:48:47;66.18;;;28.27;;
29902;SDS011;30288;50.514;9.678;2023-12-07T04:50:53;73.15;;;29.73;;
29902;SDS011;30288;50.514;9.678;2023-12-07T04:52:56;67.10;;;27.92;;
29902;SDS011;30288;50.514;9.678;2023-12-07T04:55:01;63.97;;;27.80;;
29902;SDS011;30288;50.514;9.678;2023-12-07T04:57:08;71.25;;;29.05;;
29902;SDS011;30288;50.514;9.678;2023-12-07T04:59:16;64.65;;;28.63;;
29902;SDS011;30288;50.514;9.678;2023-12-07T05:01:22;66.22;;;29.30;;
29902;SDS011;30288;50.514;9.678;2023-12-07T05:03:27;78.22;;;31.80;;
29902;SDS011;30288;50.514;9.678;2023-12-07T05:05:33;69.90;;;30.15;;
29902;SDS011;30288;50.514;9.678;2023-12-07T05:07:39;76.32;;;33.25;;
29902;SDS011;30288;50.514;9.678;2023-12-07T05:09:44;81.78;;;32.47;;
29902;SDS011;30288;50.514;9.678;2023-12-07T05:11:50;88.88;;;36.03;;
29902;SDS011;30288;50.514;9.678;2023-12-07T05:13:56;84.90;;;33.72;;
29902;SDS011;30288;50.514;9.678;2023-12-07T05:16:02;82.80;;;33.50;;
29902;SDS011;30288;50.514;9.678;2023-12-07T05:18:07;87.93;;;33.78;;
29902;SDS011;30288;50.514;9.678;2023-12-07T05:20:13;75.65;;;31.85;;
29902;SDS011;30288;50.514;9.678;2023-12-07T05:22:21;81.68;;;34.15;;
29902;SDS011;30288;50.514;9.678;2023-12-07T05:24:27;80.50;;;33.17;;
29902;SDS011;30288;50.514;9.678;2023-12-07T05:26:34;84.68;;;35.17;;
29902;SDS011;30288;50.514;9.678;2023-12-07T05:28:39;79.10;;;32.00;;
29902;SDS011;30288;50.514;9.678;2023-12-07T05:30:45;80.88;;;33.88;;
29902;SDS011;30288;50.514;9.678;2023-12-07T05:32:53;89.55;;;35.15;;
29902;SDS011;30288;50.514;9.678;2023-12-07T05:34:59;88.65;;;34.08;;
29902;SDS011;30288;50.514;9.678;2023-12-07T05:37:05;76.53;;;32.80;;
29902;SDS011;30288;50.514;9.678;2023-12-07T05:39:08;80.82;;;35.35;;
29902;SDS011;30288;50.514;9.678;2023-12-07T05:41:15;89.28;;;35.00;;
29902;SDS011;30288;50.514;9.678;2023-12-07T05:43:20;79.57;;;33.15;;
29902;SDS011;30288;50.514;9.678;2023-12-07T05:45:26;85.35;;;34.03;;
29902;SDS011;30288;50.514;9.678;2023-12-07T05:47:31;80.72;;;33.97;;
29902;SDS011;30288;50.514;9.678;2023-12-07T05:49:40;96.15;;;36.53;;
29902;SDS011;30288;50.514;9.678;2023-12-07T05:51:46;78.55;;;33.58;;
29902;SDS011;30288;50.514;9.678;2023-12-07T05:53:49;81.93;;;33.85;;
29902;SDS011;30288;50.514;9.678;2023-12-07T05:55:54;79.88;;;34.00;;
29902;SDS011;30288;50.514;9.678;2023-12-07T05:58:02;78.88;;;34.33;;
29902;SDS011;30288;50.514;9.678;2023-12-07T06:00:08;86.82;;;34.35;;
29902;SDS011;30288;50.514;9.678;2023-12-07T06:02:15;88.72;;;33.50;;
29902;SDS011;30288;50.514;9.678;2023-12-07T06:04:20;81.15;;;34.67;;
29902;SDS011;30288;50.514;9.678;2023-12-07T06:06:28;87.35;;;34.10;;
29902;SDS011;30288;50.514;9.678;2023-12-07T06:08:33;84.60;;;34.65;;
29902;SDS011;30288;50.514;9.678;2023-12-07T06:10:39;85.28;;;34.20;;
29902;SDS011;30288;50.514;9.678;2023-12-07T06:12:44;78.95;;;34.30;;
29902;SDS011;30288;50.514;9.678;2023-12-07T06:14:46;81.10;;;34.47;;
29902;SDS011;30288;50.514;9.678;2023-12-07T06:16:52;79.82;;;34.10;;
29902;SDS011;30288;50.514;9.678;2023-12-07T06:18:57;79.72;;;35.80;;
29902;SDS011;30288;50.514;9.678;2023-12-07T06:21:03;73.45;;;32.83;;
29902;SDS011;30288;50.514;9.678;2023-12-07T06:23:12;90.68;;;36.20;;
29902;SDS011;30288;50.514;9.678;2023-12-07T06:25:18;80.32;;;34.22;;
29902;SDS011;30288;50.514;9.678;2023-12-07T06:27:24;86.57;;;35.58;;
29902;SDS011;30288;50.514;9.678;2023-12-07T06:29:29;85.35;;;35.17;;
29902;SDS011;30288;50.514;9.678;2023-12-07T06:31:34;83.68;;;35.70;;
29902;SDS011;30288;50.514;9.678;2023-12-07T06:33:39;86.25;;;35.10;;
29902;SDS011;30288;50.514;9.678;2023-12-07T06:35:46;78.20;;;31.83;;
29902;SDS011;30288;50.514;9.678;2023-12-07T06:37:51;77.10;;;32.58;;
29902;SDS011;30288;50.514;9.678;2023-12-07T06:39:56;78.13;;;35.05;;
29902;SDS011;30288;50.514;9.678;2023-12-07T06:42:02;79.53;;;32.25;;
29902;SDS011;30288;50.514;9.678;2023-12-07T06:44:09;87.25;;;35.80;;
29902;SDS011;30288;50.514;9.678;2023-12-07T06:46:14;75.72;;;32.25;;
29902;SDS011;30288;50.514;9.678;2023-12-07T06:48:21;74.63;;;33.42;;
29902;SDS011;30288;50.514;9.678;2023-12-07T06:50:26;74.13;;;34.28;;
29902;SDS011;30288;50.514;9.678;2023-12-07T06:52:31;76.40;;;34.35;;
29902;SDS011;30288;50.514;9.678;2023-12-07T06:54:36;88.18;;;34.60;;
29902;SDS011;30288;50.514;9.678;2023-12-07T06:56:45;77.03;;;34.67;;
29902;SDS011;30288;50.514;9.678;2023-12-07T06:58:50;81.55;;;34.63;;
29902;SDS011;30288;50.514;9.678;2023-12-07T07:00:53;78.35;;;33.03;;
29902;SDS011;30288;50.514;9.678;2023-12-07T07:02:59;70.05;;;32.67;;
29902;SDS011;30288;50.514;9.678;2023-12-07T07:05:04;77.85;;;32.70;;
29902;SDS011;30288;50.514;9.678;2023-12-07T07:07:13;77.22;;;32.58;;
29902;SDS011;30288;50.514;9.678;2023-12-07T07:09:18;81.75;;;33.38;;
29902;SDS011;30288;50.514;9.678;2023-12-07T07:11:24;78.57;;;33.72;;
29902;SDS011;30288;50.514;9.678;2023-12-07T07:13:33;74.72;;;31.27;;
29902;SDS011;30288;50.514;9.678;2023-12-07T07:15:36;84.30;;;34.83;;
29902;SDS011;30288;50.514;9.678;2023-12-07T07:17:41;88.00;;;34.90;;
29902;SDS011;30288;50.514;9.678;2023-12-07T07:19:47;88.68;;;36.17;;
29902;SDS011;30288;50.514;9.678;2023-12-07T07:21:52;77.32;;;32.65;;
29902;SDS011;30288;50.514;9.678;2023-12-07T07:23:57;82.13;;;33.58;;
29902;SDS011;30288;50.514;9.678;2023-12-07T07:26:00;86.93;;;35.67;;
29902;SDS011;30288;50.514;9.678;2023-12-07T07:28:06;85.43;;;33.13;;
29902;SDS011;30288;50.514;9.678;2023-12-07T07:30:15;81.95;;;34.47;;
29902;SDS011;30288;50.514;9.678;2023-12-07T07:32:20;86.40;;;34.08;;
29902;SDS011;30288;50.514;9.678;2023-12-07T07:34:26;89.40;;;35.60;;
29902;SDS011;30288;50.514;9.678;2023-12-07T07:36:31;85.50;;;33.50;;
29902;SDS011;30288;50.514;9.678;2023-12-07T07:38:37;83.68;;;34.97;;
29902;SDS011;30288;50.514;9.678;2023-12-07T07:40:43;89.65;;;35.67;;
29902;SDS011;30288;50.514;9.678;2023-12-07T07:42:50;92.10;;;35.85;;
29902;SDS011;30288;50.514;9.678;2023-12-07T07:47:01;90.53;;;32.88;;
29902;SDS011;30288;50.514;9.678;2023-12-07T07:49:07;89.38;;;36.38;;
29902;SDS011;30288;50.514;9.678;2023-12-07T07:51:12;91.13;;;34.05;;
29902;SDS011;30288;50.514;9.678;2023-12-07T07:53:18;90.03;;;35.63;;
29902;SDS011;30288;50.514;9.678;2023-12-07T07:55:23;80.85;;;33.17;;
29902;SDS011;30288;50.514;9.678;2023-12-07T07:57:29;97.93;;;37.08;;
29902;SDS011;30288;50.514;9.678;2023-12-07T07:59:35;96.72;;;36.83;;
29902;SDS011;30288;50.514;9.678;2023-12-07T08:01:41;89.50;;;34.38;;
29902;SDS011;30288;50.514;9.678;2023-12-07T08:03:51;87.30;;;35.85;;
29902;SDS011;30288;50.514;9.678;2023-12-07T08:05:56;92.80;;;35.85;;
29902;SDS011;30288;50.514;9.678;2023-12-07T08:07:59;91.55;;;37.95;;
29902;SDS011;30288;50.514;9.678;2023-12-07T08:10:06;94.93;;;36.40;;
29902;SDS011;30288;50.514;9.678;2023-12-07T08:12:13;93.05;;;36.00;;
29902;SDS011;30288;50.514;9.678;2023-12-07T08:14:19;91.72;;;35.33;;
29902;SDS011;30288;50.514;9.678;2023-12-07T08:16:24;92.03;;;36.30;;
29902;SDS011;30288;50.514;9.678;2023-12-07T08:18:30;84.10;;;34.28;;
29902;SDS011;30288;50.514;9.678;2023-12-07T08:20:35;94.88;;;35.85;;
29902;SDS011;30288;50.514;9.678;2023-12-07T08:22:41;98.63;;;34.80;;
29902;SDS011;30288;50.514;9.678;2023-12-07T08:24:48;83.38;;;33.00;;
29902;SDS011;30288;50.514;9.678;2023-12-07T08:27:08;85.32;;;34.55;;
29902;SDS011;30288;50.514;9.678;2023-12-07T08:29:14;87.38;;;33.13;;
29902;SDS011;30288;50.514;9.678;2023-12-07T08:31:19;81.22;;;34.80;;
29902;SDS011;30288;50.514;9.678;2023-12-07T08:33:26;87.88;;;34.72;;
29902;SDS011;30288;50.514;9.678;2023-12-07T08:35:32;85.13;;;33.80;;
29902;SDS011;30288;50.514;9.678;2023-12-07T08:37:39;85.10;;;34.22;;
29902;SDS011;30288;50.514;9.678;2023-12-07T08:39:45;77.38;;;31.98;;
29902;SDS011;30288;50.514;9.678;2023-12-07T08:41:50;80.13;;;33.85;;
29902;SDS011;30288;50.514;9.678;2023-12-07T08:43:56;90.30;;;35.50;;
29902;SDS011;30288;50.514;9.678;2023-12-07T08:46:01;91.00;;;36.08;;
29902;SDS011;30288;50.514;9.678;2023-12-07T08:48:09;76.70;;;33.80;;
29902;SDS011;30288;50.514;9.678;2023-12-07T08:50:12;89.28;;;36.30;;
29902;SDS011;30288;50.514;9.678;2023-12-07T08:52:17;80.20;;;34.05;;
29902;SDS011;30288;50.514;9.678;2023-12-07T08:54:42;84.47;;;34.72;;
29902;SDS011;30288;50.514;9.678;2023-12-07T08:56:48;95.43;;;36.05;;
29902;SDS011;30288;50.514;9.678;2023-12-07T08:58:54;94.07;;;36.38;;
29902;SDS011;30288;50.514;9.678;2023-12-07T09:00:59;79.88;;;33.53;;
29902;SDS011;30288;50.514;9.678;2023-12-07T09:05:07;75.32;;;30.08;;
29902;SDS011;30288;50.514;9.678;2023-12-07T09:07:13;83.88;;;33.67;;
29902;SDS011;30288;50.514;9.678;2023-12-07T09:09:19;81.05;;;35.35;;
29902;SDS011;30288;50.514;9.678;2023-12-07T09:11:28;81.82;;;34.97;;
29902;SDS011;30288;50.514;9.678;2023-12-07T09:13:33;83.25;;;34.50;;
29902;SDS011;30288;50.514;9.678;2023-12-07T09:15:39;86.35;;;36.67;;
29902;SDS011;30288;50.514;9.678;2023-12-07T09:17:42;77.78;;;33.10;;
29902;SDS011;30288;50.514;9.678;2023-12-07T09:19:48;84.22;;;37.95;;
29902;SDS011;30288;50.514;9.678;2023-12-07T09:21:53;80.20;;;36.05;;
29902;SDS011;30288;50.514;9.678;2023-12-07T09:24:00;80.05;;;35.63;;
29902;SDS011;30288;50.514;9.678;2023-12-07T09:26:05;67.38;;;32.15;;
29902;SDS011;30288;50.514;9.678;2023-12-07T09:28:12;72.50;;;31.35;;
29902;SDS011;30288;50.514;9.678;2023-12-07T09:30:18;66.57;;;30.60;;
29902;SDS011;30288;50.514;9.678;2023-12-07T09:32:23;63.88;;;29.95;;
29902;SDS011;30288;50.514;9.678;2023-12-07T09:34:39;67.88;;;30.15;;
29902;SDS011;30288;50.514;9.678;2023-12-07T09:36:45;62.95;;;30.75;;
29902;SDS011;30288;50.514;9.678;2023-12-07T09:38:50;61.58;;;28.85;;
29902;SDS011;30288;50.514;9.678;2023-12-07T09:40:56;63.05;;;29.17;;
29902;SDS011;30288;50.514;9.678;2023-12-07T09:43:01;59.60;;;29.27;;
29902;SDS011;30288;50.514;9.678;2023-12-07T09:45:07;57.17;;;23.98;;
29902;SDS011;30288;50.514;9.678;2023-12-07T09:47:14;56.15;;;28.08;;
29902;SDS011;30288;50.514;9.678;2023-12-07T09:49:31;56.88;;;27.48;;
29902;SDS011;30288;50.514;9.678;2023-12-07T09:51:37;54.70;;;26.83;;
29902;SDS011;30288;50.514;9.678;2023-12-07T09:53:45;48.05;;;25.05;;
29902;SDS011;30288;50.514;9.678;2023-12-07T09:55:56;52.65;;;25.38;;
29902;SDS011;30288;50.514;9.678;2023-12-07T09:58:02;57.70;;;26.48;;
29902;SDS011;30288;50.514;9.678;2023-12-07T10:00:13;54.20;;;26.30;;
29902;SDS011;30288;50.514;9.678;2023-12-07T10:02:18;51.45;;;25.95;;
29902;SDS011;30288;50.514;9.678;2023-12-07T10:04:23;50.97;;;25.10;;
29902;SDS011;30288;50.514;9.678;2023-12-07T10:06:32;48.00;;;23.58;;
29902;SDS011;30288;50.514;9.678;2023-12-07T10:08:49;39.97;;;20.73;;
29902;SDS011;30288;50.514;9.678;2023-12-07T10:11:03;44.00;;;22.20;;
29902;SDS011;30288;50.514;9.678;2023-12-07T10:13:10;39.33;;;20.73;;
29902;SDS011;30288;50.514;9.678;2023-12-07T10:15:20;43.50;;;20.65;;
29902;SDS011;30288;50.514;9.678;2023-12-07T10:17:41;36.35;;;20.50;;
29902;SDS011;30288;50.514;9.678;2023-12-07T10:22:14;34.33;;;17.75;;
29902;SDS011;30288;50.514;9.678;2023-12-07T10:24:20;38.42;;;19.45;;
29902;SDS011;30288;50.514;9.678;2023-12-07T10:26:30;35.15;;;18.75;;
29902;SDS011;30288;50.514;9.678;2023-12-07T10:28:38;33.42;;;17.75;;
29902;SDS011;30288;50.514;9.678;2023-12-07T10:30:47;32.38;;;17.77;;
29902;SDS011;30288;50.514;9.678;2023-12-07T10:32:50;35.85;;;19.27;;
29902;SDS011;30288;50.514;9.678;2023-12-07T10:34:56;28.15;;;17.08;;
29902;SDS011;30288;50.514;9.678;2023-12-07T10:37:00;30.98;;;18.00;;
29902;SDS011;30288;50.514;9.678;2023-12-07T10:39:07;31.35;;;17.83;;
29902;SDS011;30288;50.514;9.678;2023-12-07T10:41:22;34.55;;;17.15;;
29902;SDS011;30288;50.514;9.678;2023-12-07T10:43:28;27.70;;;15.95;;
29902;SDS011;30288;50.514;9.678;2023-12-07T10:45:34;27.17;;;14.95;;
29902;SDS011;30288;50.514;9.678;2023-12-07T10:47:44;23.92;;;13.93;;
29902;SDS011;30288;50.514;9.678;2023-12-07T10:49:51;22.52;;;14.23;;
29902;SDS011;30288;50.514;9.678;2023-12-07T10:52:03;23.88;;;13.60;;
29902;SDS011;30288;50.514;9.678;2023-12-07T10:54:14;19.58;;;11.77;;
29902;SDS011;30288;50.514;9.678;2023-12-07T10:56:24;17.58;;;11.30;;
29902;SDS011;30288;50.514;9.678;2023-12-07T10:58:44;20.27;;;12.00;;
29902;SDS011;30288;50.514;9.678;2023-12-07T11:00:52;19.92;;;11.75;;
29902;SDS011;30288;50.514;9.678;2023-12-07T11:03:01;16.77;;;9.93;;
29902;SDS011;30288;50.514;9.678;2023-12-07T11:05:06;17.58;;;10.45;;
29902;SDS011;30288;50.514;9.678;2023-12-07T11:07:14;18.13;;;11.45;;
29902;SDS011;30288;50.514;9.678;2023-12-07T11:09:27;18.95;;;10.95;;
29902;SDS011;30288;50.514;9.678;2023-12-07T11:11:40;20.00;;;11.38;;
29902;SDS011;30288;50.514;9.678;2023-12-07T11:13:49;18.35;;;11.07;;
29902;SDS011;30288;50.514;9.678;2023-12-07T11:16:00;26.38;;;11.98;;
29902;SDS011;30288;50.514;9.678;2023-12-07T11:18:09;18.10;;;10.32;;
29902;SDS011;30288;50.514;9.678;2023-12-07T11:20:20;16.05;;;9.98;;
29902;SDS011;30288;50.514;9.678;2023-12-07T11:22:26;18.77;;;10.82;;
29902;SDS011;30288;50.514;9.678;2023-12-07T11:24:31;16.73;;;10.55;;
29902;SDS011;30288;50.514;9.678;2023-12-07T11:26:37;15.00;;;9.40;;
29902;SDS011;30288;50.514;9.678;2023-12-07T11:28:46;16.23;;;10.30;;
29902;SDS011;30288;50.514;9.678;2023-12-07T11:30:53;17.15;;;9.98;;
29902;SDS011;30288;50.514;9.678;2023-12-07T11:32:58;15.15;;;9.38;;
29902;SDS011;30288;50.514;9.678;2023-12-07T11:35:07;15.98;;;9.57;;
29902;SDS011;30288;50.514;9.678;2023-12-07T11:39:22;15.50;;;9.52;;
29902;SDS011;30288;50.514;9.678;2023-12-07T11:41:33;16.67;;;10.02;;
29902;SDS011;30288;50.514;9.678;2023-12-07T11:43:44;14.90;;;9.63;;
29902;SDS011;30288;50.514;9.678;2023-12-07T11:45:51;15.23;;;8.75;;
29902;SDS011;30288;50.514;9.678;2023-12-07T11:48:06;14.38;;;8.65;;
29902;SDS011;30288;50.514;9.678;2023-12-07T11:50:15;15.00;;;9.00;;
29902;SDS011;30288;50.514;9.678;2023-12-07T11:52:20;17.15;;;9.02;;
29902;SDS011;30288;50.514;9.678;2023-12-07T11:54:28;17.35;;;9.82;;
29902;SDS011;30288;50.514;9.678;2023-12-07T11:56:34;16.75;;;10.32;;
29902;SDS011;30288;50.514;9.678;2023-12-07T11:58:40;18.75;;;10.63;;
29902;SDS011;30288;50.514;9.678;2023-12-07T12:00:46;15.18;;;8.77;;
29902;SDS011;30288;50.514;9.678;2023-12-07T12:02:50;16.02;;;9.13;;
29902;SDS011;30288;50.514;9.678;2023-12-07T12:04:55;15.63;;;9.07;;
29902;SDS011;30288;50.514;9.678;2023-12-07T12:07:06;19.52;;;10.52;;
29902;SDS011;30288;50.514;9.678;2023-12-07T12:09:12;17.20;;;10.30;;
29902;SDS011;30288;50.514;9.678;2023-12-07T12:11:30;19.45;;;10.25;;
29902;SDS011;30288;50.514;9.678;2023-12-07T12:13:36;14.63;;;8.75;;
29902;SDS011;30288;50.514;9.678;2023-12-07T12:15:42;17.10;;;10.13;;
29902;SDS011;30288;50.514;9.678;2023-12-07T12:17:48;15.02;;;9.75;;
29902;SDS011;30288;50.514;9.678;2023-12-07T12:19:54;18.70;;;10.80;;
29902;SDS011;30288;50.514;9.678;2023-12-07T12:22:00;18.88;;;11.35;;
29902;SDS011;30288;50.514;9.678;2023-12-07T12:24:12;20.63;;;11.27;;
29902;SDS011;30288;50.514;9.678;2023-12-07T12:26:17;18.13;;;9.98;;
29902;SDS011;30288;50.514;9.678;2023-12-07T12:28:22;18.25;;;10.30;;
29902;SDS011;30288;50.514;9.678;2023-12-07T12:30:29;15.63;;;9.85;;